Time;durP1;ratioP1;P1;durP2;ratioP2;P2;SDS_P1;SDS_P2;PMS_P1;PMS_P2;Temp;Humidity;BMP_temperature;BMP_pressure;BME280_temperature;BME280_humidity;BME280_pressure;Samples;Min_cycle;Max_cycle;Signal;HPM_P1;HPM_P2
2024/04/19 00:00:27;;;;;;;2.53;1.77;;;10.70;99.90;;;;;;5490799;25;20425;-72
2024/04/19 00:02:56;;;;;;;2.23;2.13;;;10.70;99.90;;;;;;5490607;25;20269;-72
2024/04/19 00:05:22;;;;;;;3.08;2.28;;;10.60;99.90;;;;;;5490810;25;20529;-72
2024/04/19 00:07:50;;;;;;;2.30;2.10;;;10.60;99.90;;;;;;5490671;25;20606;-72
2024/04/19 00:10:19;;;;;;;3.95;2.30;;;10.60;99.90;;;;;;5490927;26;20553;-72
2024/04/19 00:12:47;;;;;;;3.70;2.65;;;10.60;99.90;;;;;;5490383;26;20248;-72
2024/04/19 00:15:13;;;;;;;3.33;2.15;;;10.60;99.90;;;;;;5490901;26;20316;-72
2024/04/19 00:17:42;;;;;;;3.33;2.35;;;10.60;99.90;;;;;;5490094;26;20391;-72
2024/04/19 00:20:08;;;;;;;3.03;2.08;;;10.60;99.90;;;;;;5490350;26;20656;-72
2024/04/19 00:22:37;;;;;;;3.50;2.13;;;10.60;99.90;;;;;;5488421;25;20260;-72
2024/04/19 00:25:03;;;;;;;5.00;4.40;;;10.60;99.90;;;;;;5489566;25;20315;-73
2024/04/19 00:27:35;;;;;;;4.90;3.58;;;10.60;99.90;;;;;;5489757;25;20260;-72
2024/04/19 00:30:01;;;;;;;2.63;2.42;;;10.60;99.90;;;;;;5488798;25;20283;-73
2024/04/19 00:32:29;;;;;;;3.55;2.10;;;10.50;99.90;;;;;;5490403;25;20245;-73
2024/04/19 00:34:55;;;;;;;2.65;2.35;;;10.50;99.90;;;;;;5489989;25;20342;-72
2024/04/19 00:37:24;;;;;;;4.70;2.53;;;10.50;99.90;;;;;;5488673;25;20240;-72
2024/04/19 00:39:50;;;;;;;2.40;2.20;;;10.50;99.90;;;;;;5488297;25;20629;-72
2024/04/19 00:42:18;;;;;;;2.50;2.07;;;10.50;99.90;;;;;;5488267;25;20676;-72
2024/04/19 00:44:47;;;;;;;2.17;2.00;;;10.50;99.90;;;;;;5471278;25;20657;-72
2024/04/19 00:47:15;;;;;;;2.95;2.08;;;10.50;99.90;;;;;;5452204;26;20258;-72
2024/04/19 00:49:43;;;;;;;1.80;1.70;;;10.50;99.90;;;;;;5451966;26;20304;-73
2024/04/19 00:52:13;;;;;;;2.25;1.75;;;10.50;99.90;;;;;;5451571;26;20246;-71
2024/04/19 00:54:41;;;;;;;3.15;2.45;;;10.50;99.90;;;;;;5453339;26;20317;-72
2024/04/19 00:57:10;;;;;;;2.10;2.00;;;10.50;99.90;;;;;;5451754;26;20305;-72
2024/04/19 00:59:36;;;;;;;2.38;2.17;;;10.40;99.90;;;;;;5419338;26;20351;-73
2024/04/19 01:02:07;;;;;;;3.13;1.95;;;10.50;99.90;;;;;;5417232;26;21090;-71
2024/04/19 01:04:34;;;;;;;2.90;1.88;;;10.40;99.90;;;;;;5417919;26;20373;-73
2024/04/19 01:07:03;;;;;;;2.78;2.15;;;10.40;99.90;;;;;;5417234;26;20660;-73
2024/04/19 01:09:29;;;;;;;2.30;2.10;;;10.40;99.90;;;;;;5417253;26;20672;-73
2024/04/19 01:11:59;;;;;;;3.73;2.53;;;10.40;99.90;;;;;;5416910;26;20259;-73
2024/04/19 01:14:25;;;;;;;5.57;2.17;;;10.40;99.90;;;;;;5417454;26;20886;-72
2024/04/19 01:16:53;;;;;;;4.40;2.83;;;10.40;99.90;;;;;;5416908;26;20246;-72
2024/04/19 01:19:22;;;;;;;4.90;2.70;;;10.40;99.90;;;;;;5417637;26;20500;-72
2024/04/19 01:21:51;;;;;;;3.95;2.42;;;10.30;99.90;;;;;;5426475;25;20436;-72
2024/04/19 01:24:26;;;;;;;3.85;1.98;;;10.30;99.90;;;;;;5421089;26;20309;-72
2024/04/19 01:26:57;;;;;;;3.75;2.47;;;10.30;99.90;;;;;;5445731;25;20379;-72
2024/04/19 01:29:23;;;;;;;2.70;2.00;;;10.30;99.90;;;;;;5460427;25;20288;-72
2024/04/19 01:31:51;;;;;;;3.33;2.60;;;10.30;99.90;;;;;;5453101;25;20261;-72
2024/04/19 01:34:22;;;;;;;3.42;2.63;;;10.30;99.90;;;;;;5464844;25;20558;-72
2024/04/19 01:36:48;;;;;;;4.07;2.45;;;10.30;99.90;;;;;;5454752;26;20590;-72
2024/04/19 01:39:17;;;;;;;2.53;2.13;;;10.30;99.90;;;;;;5450987;26;20356;-73
2024/04/19 01:41:43;;;;;;;2.95;2.40;;;10.30;99.90;;;;;;5492585;25;20917;-72
2024/04/19 01:44:14;;;;;;;2.13;2.03;;;10.30;99.90;;;;;;5479187;25;20253;-72
2024/04/19 01:46:40;;;;;;;2.80;1.85;;;10.30;99.90;;;;;;5456443;25;20498;-72
2024/04/19 01:49:09;;;;;;;3.27;2.40;;;10.30;99.90;;;;;;5492579;25;20248;-72
2024/04/19 01:51:35;;;;;;;3.60;2.42;;;10.30;99.90;;;;;;5493159;25;20470;-73
2024/04/19 01:54:04;;;;;;;2.60;2.40;;;10.30;99.90;;;;;;5492733;25;20353;-72
2024/04/19 01:56:29;;;;;;;4.63;2.80;;;10.30;99.90;;;;;;5491943;25;20620;-73
2024/04/19 01:58:58;;;;;;;2.17;1.97;;;10.30;99.90;;;;;;5488377;25;20256;-72
2024/04/19 02:01:27;;;;;;;3.60;2.15;;;10.30;99.90;;;;;;5492302;25;20497;-72
2024/04/19 02:03:55;;;;;;;3.45;2.00;;;10.30;99.90;;;;;;5492113;25;20350;-72
2024/04/19 02:06:21;;;;;;;4.93;2.10;;;10.30;99.90;;;;;;5492964;25;20300;-72
2024/04/19 02:08:50;;;;;;;2.00;1.80;;;10.30;99.90;;;;;;5492480;25;20767;-72
2024/04/19 02:11:16;;;;;;;2.40;2.17;;;10.30;99.90;;;;;;5492733;25;20584;-73
2024/04/19 02:13:45;;;;;;;3.97;1.90;;;10.30;99.90;;;;;;5492644;25;20253;-72
2024/04/19 02:16:11;;;;;;;3.88;2.15;;;10.30;99.90;;;;;;5455785;26;20695;-72
2024/04/19 02:18:42;;;;;;;2.03;1.83;;;10.40;99.90;;;;;;5471251;25;20242;-72
2024/04/19 02:21:08;;;;;;;3.78;2.10;;;10.30;99.90;;;;;;5453074;26;20550;-73
2024/04/19 02:23:44;;;;;;;5.23;2.03;;;10.30;99.90;;;;;;5437979;26;20538;-72
2024/04/19 02:26:10;;;;;;;4.97;2.42;;;10.30;99.90;;;;;;5455571;26;20518;-73
2024/04/19 02:31:25;;;;;;;3.08;2.35;;;10.30;99.90;;;;;;5459063;26;20291;-73
2024/04/19 02:33:56;;;;;;;3.25;2.53;;;10.40;99.90;;;;;;5455345;26;20360;-72
2024/04/19 02:36:25;;;;;;;2.90;2.15;;;10.40;99.90;;;;;;5456107;26;20309;-72
2024/04/19 02:38:54;;;;;;;2.40;2.20;;;10.40;99.90;;;;;;5455704;26;20288;-72
2024/04/19 02:41:23;;;;;;;4.15;3.17;;;10.40;99.90;;;;;;5455774;26;20316;-72
2024/04/19 02:43:51;;;;;;;4.70;2.30;;;10.40;99.90;;;;;;5458456;25;20343;-72
2024/04/19 02:46:20;;;;;;;2.88;2.47;;;10.40;99.90;;;;;;5455871;26;20731;-72
2024/04/19 02:48:49;;;;;;;3.80;2.72;;;10.40;99.90;;;;;;5453862;26;20668;-73
2024/04/19 02:51:20;;;;;;;3.10;2.47;;;10.40;99.90;;;;;;5455727;26;20249;-73
2024/04/19 02:53:47;;;;;;;3.28;2.15;;;10.40;99.90;;;;;;5454955;26;20609;-72
2024/04/19 02:56:16;;;;;;;6.03;3.42;;;10.40;99.90;;;;;;5455586;26;20671;-72
2024/04/19 02:58:44;;;;;;;6.82;2.70;;;10.30;99.90;;;;;;5455145;26;20676;-72
2024/04/19 03:01:13;;;;;;;5.82;2.28;;;10.30;99.90;;;;;;5455520;26;20354;-72
2024/04/19 03:03:41;;;;;;;4.82;2.88;;;10.30;99.90;;;;;;5455265;26;20254;-72
2024/04/19 03:06:10;;;;;;;5.30;2.53;;;10.30;99.90;;;;;;5455358;26;20312;-72
2024/04/19 03:08:46;;;;;;;6.75;2.90;;;10.30;99.90;;;;;;5454945;26;20293;-73
2024/04/19 03:11:15;;;;;;;2.90;1.85;;;10.30;99.90;;;;;;5455443;26;20253;-72
2024/04/19 03:13:43;;;;;;;3.90;3.50;;;10.30;99.90;;;;;;5454788;26;20403;-72
2024/04/19 03:16:14;;;;;;;3.10;2.28;;;10.30;99.90;;;;;;5455092;26;20309;-72
2024/04/19 03:18:44;;;;;;;2.47;2.28;;;10.30;99.90;;;;;;5454859;26;20354;-73
2024/04/19 03:21:12;;;;;;;3.67;1.90;;;10.20;99.90;;;;;;5455210;26;20249;-73
2024/04/19 03:23:44;;;;;;;3.38;2.20;;;10.20;99.90;;;;;;5454500;25;20261;-72
2024/04/19 03:26:12;;;;;;;3.13;2.30;;;10.20;99.90;;;;;;5455122;25;20304;-72
2024/04/19 03:28:41;;;;;;;3.08;1.75;;;10.20;99.90;;;;;;5456122;25;20313;-72
2024/04/19 03:31:11;;;;;;;4.53;2.20;;;10.20;99.90;;;;;;5436118;26;20313;-73
2024/04/19 03:33:39;;;;;;;4.40;2.20;;;10.10;99.90;;;;;;5433587;26;20250;-73
2024/04/19 03:36:09;;;;;;;3.53;2.22;;;10.10;99.90;;;;;;5427505;26;20321;-73
2024/04/19 03:38:38;;;;;;;2.67;1.90;;;10.10;99.90;;;;;;5424656;26;20247;-72
2024/04/19 03:41:10;;;;;;;3.97;2.17;;;10.10;99.90;;;;;;5431811;26;20374;-73
2024/04/19 03:43:41;;;;;;;8.88;2.75;;;10.10;99.90;;;;;;5438659;26;20367;-72
2024/04/19 03:46:07;;;;;;;6.70;2.88;;;10.10;99.90;;;;;;5454945;26;20249;-73
2024/04/19 03:48:36;;;;;;;3.33;2.28;;;10.10;99.90;;;;;;5454443;26;20253;-73
2024/04/19 03:51:05;;;;;;;4.60;1.67;;;10.10;99.90;;;;;;5455149;26;20778;-72
2024/04/19 03:53:33;;;;;;;6.65;3.35;;;10.10;99.90;;;;;;5454736;26;20245;-73
2024/04/19 03:56:02;;;;;;;4.90;2.30;;;10.10;99.90;;;;;;5454434;26;20297;-73
2024/04/19 03:58:33;;;;;;;3.30;2.00;;;10.10;99.90;;;;;;5454094;26;20305;-72
2024/04/19 04:01:07;;;;;;;7.75;2.13;;;10.10;99.90;;;;;;5454350;26;20704;-73
2024/04/19 04:03:36;;;;;;;6.53;1.98;;;10.00;99.90;;;;;;5454458;26;20249;-72
2024/04/19 04:06:04;;;;;;;3.40;1.70;;;10.00;99.90;;;;;;5453952;26;20330;-72
2024/04/19 04:08:33;;;;;;;3.88;2.33;;;10.00;99.90;;;;;;5454641;26;20317;-72
2024/04/19 04:11:02;;;;;;;3.17;1.90;;;10.10;99.90;;;;;;5441593;25;20362;-73
2024/04/19 04:13:33;;;;;;;3.05;2.30;;;10.10;99.90;;;;;;5421333;26;20584;-72
2024/04/19 04:16:01;;;;;;;3.92;2.38;;;10.00;99.90;;;;;;5418227;26;20639;-71
2024/04/19 04:18:30;;;;;;;3.85;1.83;;;10.00;99.90;;;;;;5418543;26;20285;-71
2024/04/19 04:20:59;;;;;;;2.65;2.20;;;10.00;99.90;;;;;;5418010;26;20747;-71
2024/04/19 04:23:27;;;;;;;4.25;2.10;;;10.00;99.90;;;;;;5434358;25;20310;-72
2024/04/19 04:25:56;;;;;;;4.60;2.88;;;10.00;99.90;;;;;;5453895;25;20305;-72
2024/04/19 04:28:25;;;;;;;6.65;2.25;;;10.00;99.90;;;;;;5454172;25;20305;-71
2024/04/19 04:30:56;;;;;;;3.13;2.20;;;10.00;99.90;;;;;;5453099;25;20312;-71
2024/04/19 04:33:25;;;;;;;5.18;2.53;;;10.00;99.90;;;;;;5417901;26;20766;-72
2024/04/19 04:35:53;;;;;;;3.80;2.53;;;10.00;99.90;;;;;;5417532;26;20365;-73
2024/04/19 04:38:22;;;;;;;2.97;2.28;;;10.00;99.90;;;;;;5418193;26;20258;-72
2024/04/19 04:40:50;;;;;;;4.63;3.03;;;10.00;99.90;;;;;;5417659;26;20369;-73
2024/04/19 04:43:19;;;;;;;4.47;2.30;;;10.00;99.90;;;;;;5417966;26;20322;-72
2024/04/19 04:45:48;;;;;;;6.45;3.70;;;10.10;99.90;;;;;;5417460;26;20289;-72
2024/04/19 04:48:19;;;;;;;4.40;3.10;;;10.00;99.90;;;;;;5418258;26;20301;-72
2024/04/19 04:50:48;;;;;;;3.00;2.70;;;10.10;99.90;;;;;;5417577;26;20318;-72
2024/04/19 04:53:16;;;;;;;4.90;3.10;;;10.00;99.90;;;;;;5417944;26;20376;-73
2024/04/19 04:55:45;;;;;;;3.03;2.70;;;10.00;99.90;;;;;;5417533;26;20318;-72
2024/04/19 04:58:17;;;;;;;4.68;3.40;;;10.10;99.90;;;;;;5417825;26;20251;-72
2024/04/19 05:00:47;;;;;;;4.55;3.03;;;10.10;99.90;;;;;;5416453;26;20669;-73
2024/04/19 05:03:15;;;;;;;3.45;2.88;;;10.10;99.90;;;;;;5417908;26;20254;-73
2024/04/19 05:05:47;;;;;;;5.05;3.83;;;10.10;99.90;;;;;;5417623;26;20350;-73
2024/04/19 05:08:15;;;;;;;8.98;6.75;;;10.10;99.90;;;;;;5453119;26;20594;-72
2024/04/19 05:10:44;;;;;;;12.50;6.95;;;10.00;99.90;;;;;;5454123;26;20348;-72
2024/04/19 05:13:12;;;;;;;9.18;5.57;;;10.10;99.90;;;;;;5456674;26;20285;-72
2024/04/19 05:15:41;;;;;;;12.40;7.00;;;10.10;99.90;;;;;;5456771;26;20372;-73
2024/04/19 05:18:10;;;;;;;22.85;12.27;;;10.10;99.90;;;;;;5456550;26;20249;-71
2024/04/19 05:20:38;;;;;;;9.13;7.65;;;10.00;99.90;;;;;;5457323;26;20309;-71
2024/04/19 05:23:11;;;;;;;5.88;5.25;;;10.00;99.90;;;;;;5456284;26;20654;-71
2024/04/19 05:25:39;;;;;;;9.63;6.05;;;10.00;99.90;;;;;;5456647;26;20343;-71
2024/04/19 05:28:08;;;;;;;9.05;4.35;;;10.00;99.90;;;;;;5456620;26;20300;-72
2024/04/19 05:30:38;;;;;;;3.90;3.10;;;9.90;99.90;;;;;;5456901;26;20297;-72
2024/04/19 05:33:07;;;;;;;5.40;4.07;;;10.00;99.90;;;;;;5456058;26;20312;-72
2024/04/19 05:35:35;;;;;;;6.82;3.72;;;10.00;99.90;;;;;;5456817;26;20312;-72
2024/04/19 05:38:04;;;;;;;4.38;3.90;;;10.10;99.90;;;;;;5455960;26;20372;-72
2024/04/19 05:40:35;;;;;;;7.78;4.32;;;10.10;99.90;;;;;;5456689;26;20814;-73
2024/04/19 05:43:04;;;;;;;6.63;4.35;;;10.10;99.90;;;;;;5456314;26;20663;-73
2024/04/19 05:45:35;;;;;;;5.53;5.00;;;10.00;99.90;;;;;;5456448;26;20364;-71
2024/04/19 05:48:03;;;;;;;9.88;4.10;;;10.00;99.90;;;;;;5455893;26;20639;-71
2024/04/19 05:50:32;;;;;;;7.47;4.53;;;10.10;99.90;;;;;;5456759;26;20300;-71
2024/04/19 05:53:01;;;;;;;5.95;5.35;;;10.10;99.90;;;;;;5456183;26;20579;-71
2024/04/19 05:55:30;;;;;;;6.10;4.35;;;10.00;99.90;;;;;;5456247;26;20318;-72
2024/04/19 05:58:02;;;;;;;6.75;5.28;;;10.10;99.90;;;;;;5456059;26;20288;-71
2024/04/19 06:00:30;;;;;;;5.88;4.38;;;10.00;99.90;;;;;;5456593;26;20261;-71
2024/04/19 06:02:59;;;;;;;8.00;4.80;;;10.00;99.90;;;;;;5456059;26;20320;-72
2024/04/19 06:05:27;;;;;;;5.90;4.38;;;10.00;99.90;;;;;;5456319;26;20312;-72
2024/04/19 06:07:57;;;;;;;9.13;6.45;;;10.00;99.90;;;;;;5455877;26;20368;-72
2024/04/19 06:10:25;;;;;;;9.23;8.25;;;10.00;99.90;;;;;;5454781;26;20375;-73
2024/04/19 06:12:54;;;;;;;9.48;8.35;;;10.00;99.90;;;;;;5456224;26;20297;-73
2024/04/19 06:15:25;;;;;;;27.05;19.88;;;9.90;99.90;;;;;;5455982;26;20365;-73
2024/04/19 06:17:54;;;;;;;10.35;7.32;;;9.90;99.90;;;;;;5456270;26;20384;-74
2024/04/19 06:20:32;;;;;;;15.65;11.00;;;10.00;99.90;;;;;;5455475;26;20309;-74
2024/04/19 06:23:01;;;;;;;8.73;6.05;;;9.90;99.90;;;;;;5455129;26;20300;-73
2024/04/19 06:25:29;;;;;;;8.38;6.78;;;10.00;99.90;;;;;;5454814;26;20249;-73
2024/04/19 06:27:58;;;;;;;8.70;7.40;;;10.00;99.90;;;;;;5456045;26;20724;-73
2024/04/19 06:30:29;;;;;;;11.10;9.85;;;10.00;99.90;;;;;;5455452;26;20285;-71
2024/04/19 06:32:58;;;;;;;14.07;11.57;;;10.00;99.90;;;;;;5456101;26;20250;-71
2024/04/19 06:35:27;;;;;;;9.52;8.23;;;10.10;99.90;;;;;;5455326;26;20367;-72
2024/04/19 06:37:55;;;;;;;9.48;7.85;;;10.00;99.90;;;;;;5455857;26;20372;-73
2024/04/19 06:40:24;;;;;;;21.38;16.73;;;10.10;99.90;;;;;;5455065;26;20297;-72
2024/04/19 06:42:52;;;;;;;13.38;9.80;;;10.00;99.90;;;;;;5455632;26;20373;-72
2024/04/19 06:45:21;;;;;;;12.52;10.25;;;10.00;99.90;;;;;;5455359;26;20352;-73
2024/04/19 06:47:52;;;;;;;12.52;10.48;;;10.00;99.90;;;;;;5455599;26;20317;-73
2024/04/19 06:50:21;;;;;;;8.70;5.60;;;10.00;99.90;;;;;;5454237;26;20324;-73
2024/04/19 06:52:49;;;;;;;12.70;11.13;;;10.00;99.90;;;;;;5455643;26;20309;-73
2024/04/19 06:55:18;;;;;;;5.93;4.82;;;10.00;99.90;;;;;;5455356;26;20309;-73
2024/04/19 06:57:47;;;;;;;5.05;4.40;;;10.00;99.90;;;;;;5454872;26;20249;-73
2024/04/19 07:00:16;;;;;;;5.22;4.72;;;10.00;99.90;;;;;;5454619;26;20313;-73
2024/04/19 07:02:52;;;;;;;7.88;6.38;;;9.90;99.90;;;;;;5455508;26;20334;-74
2024/04/19 07:05:23;;;;;;;5.55;4.82;;;10.00;99.90;;;;;;5453188;26;20249;-73
2024/04/19 07:07:52;;;;;;;5.53;4.60;;;10.00;99.90;;;;;;5455423;26;20338;-73
2024/04/19 07:10:24;;;;;;;6.18;5.63;;;9.90;99.90;;;;;;5455093;26;20313;-73
2024/04/19 07:12:53;;;;;;;5.40;4.20;;;9.90;99.90;;;;;;5455581;26;20676;-73
2024/04/19 07:15:21;;;;;;;5.25;4.70;;;9.80;99.90;;;;;;5454965;26;20367;-73
2024/04/19 07:17:52;;;;;;;6.50;5.88;;;9.80;99.90;;;;;;5454882;26;20347;-73
2024/04/19 07:20:24;;;;;;;6.18;4.57;;;9.70;99.90;;;;;;5454787;26;20245;-73
2024/04/19 07:22:54;;;;;;;5.57;5.05;;;9.60;99.90;;;;;;5455158;26;20250;-72
2024/04/19 07:25:22;;;;;;;5.70;4.95;;;9.50;99.90;;;;;;5454765;26;20246;-72
2024/04/19 07:27:51;;;;;;;5.40;4.43;;;9.50;99.90;;;;;;5454847;26;20301;-72
2024/04/19 07:30:19;;;;;;;5.43;4.90;;;9.40;99.90;;;;;;5454855;26;20727;-72
2024/04/19 07:32:49;;;;;;;4.65;4.25;;;9.30;99.90;;;;;;5455099;26;20313;-73
2024/04/19 07:35:18;;;;;;;7.60;4.78;;;9.30;99.90;;;;;;5453559;26;20750;-73
2024/04/19 07:37:50;;;;;;;5.70;4.68;;;9.30;99.90;;;;;;5454753;26;20245;-73
2024/04/19 07:40:18;;;;;;;9.50;4.85;;;9.30;99.90;;;;;;5454582;26;20253;-72
2024/04/19 07:42:47;;;;;;;7.90;5.03;;;9.40;99.90;;;;;;5455398;26;20300;-73
2024/04/19 07:45:20;;;;;;;6.90;6.22;;;9.40;99.90;;;;;;5454386;26;20312;-72
2024/04/19 07:47:49;;;;;;;6.82;6.15;;;9.40;99.90;;;;;;5454598;26;20544;-73
2024/04/19 07:50:18;;;;;;;9.63;6.90;;;9.50;99.90;;;;;;5454322;26;20242;-73
2024/04/19 07:52:51;;;;;;;6.32;5.80;;;9.60;99.90;;;;;;5454892;26;20390;-73
2024/04/19 07:55:19;;;;;;;4.80;4.35;;;9.60;99.90;;;;;;5454455;26;20261;-72
2024/04/19 07:57:49;;;;;;;5.25;4.25;;;9.60;99.90;;;;;;5454532;26;20361;-73
2024/04/19 08:00:21;;;;;;;4.75;4.32;;;9.60;99.90;;;;;;5453989;26;20638;-72
2024/04/19 08:02:50;;;;;;;7.93;7.00;;;9.60;99.90;;;;;;5454421;26;20279;-73
2024/04/19 08:05:20;;;;;;;6.05;5.10;;;9.60;99.90;;;;;;5454335;26;20266;-73
2024/04/19 08:07:56;;;;;;;5.43;4.93;;;9.60;99.90;;;;;;5454566;26;20253;-73
2024/04/19 08:10:25;;;;;;;6.45;4.70;;;9.60;99.90;;;;;;5454323;26;20264;-73
2024/04/19 08:12:54;;;;;;;6.22;5.60;;;9.60;99.90;;;;;;5454699;26;20688;-73
2024/04/19 08:15:23;;;;;;;5.85;4.32;;;9.60;99.90;;;;;;5454032;26;20360;-73
2024/04/19 08:17:52;;;;;;;5.05;4.60;;;9.50;99.90;;;;;;5454133;26;20304;-72
2024/04/19 08:20:21;;;;;;;5.60;5.07;;;9.60;99.90;;;;;;5453898;26;20249;-72
2024/04/19 08:22:52;;;;;;;5.95;4.90;;;9.60;99.90;;;;;;5454079;26;20624;-72
2024/04/19 08:25:21;;;;;;;4.97;4.47;;;9.60;99.90;;;;;;5453791;26;20679;-73
2024/04/19 08:27:49;;;;;;;5.90;5.38;;;9.70;99.90;;;;;;5454215;26;20246;-73
2024/04/19 08:30:18;;;;;;;7.40;5.57;;;9.70;99.90;;;;;;5453609;26;20305;-73
2024/04/19 08:32:47;;;;;;;8.40;5.60;;;9.60;99.90;;;;;;5454162;26;20321;-73
2024/04/19 08:35:16;;;;;;;6.10;5.50;;;9.60;99.90;;;;;;5453938;26;20688;-72
2024/04/19 08:37:44;;;;;;;5.75;5.25;;;9.60;99.90;;;;;;5453993;26;20814;-73
2024/04/19 08:40:16;;;;;;;5.80;5.30;;;9.60;99.90;;;;;;5454118;26;20323;-73
2024/04/19 08:42:45;;;;;;;6.38;5.82;;;9.60;99.90;;;;;;5454182;26;20658;-73
2024/04/19 08:45:16;;;;;;;8.05;6.07;;;9.60;99.90;;;;;;5452499;26;20313;-73
2024/04/19 08:47:46;;;;;;;8.05;7.25;;;9.70;99.90;;;;;;5453507;26;20249;-73
2024/04/19 08:50:12;;;;;;;7.93;7.13;;;9.70;99.90;;;;;;5453930;26;20372;-73
2024/04/19 08:52:42;;;;;;;7.05;6.45;;;9.80;99.90;;;;;;5453827;26;20334;-73
2024/04/19 08:55:15;;;;;;;6.75;6.15;;;9.80;99.90;;;;;;5453786;26;20304;-73
2024/04/19 08:57:47;;;;;;;6.35;5.85;;;9.90;99.90;;;;;;5453358;26;20325;-73
2024/04/19 09:00:16;;;;;;;5.75;5.13;;;9.90;99.90;;;;;;5453723;26;20368;-73
2024/04/19 09:02:45;;;;;;;7.65;6.93;;;9.90;99.90;;;;;;5453178;26;20367;-72
2024/04/19 09:05:14;;;;;;;8.05;6.15;;;9.80;99.90;;;;;;5453679;26;20696;-72
2024/04/19 09:07:43;;;;;;;6.13;5.53;;;9.70;99.90;;;;;;5453196;26;20751;-72
2024/04/19 09:10:13;;;;;;;9.48;8.40;;;9.70;99.90;;;;;;5453493;26;20297;-72
2024/04/19 09:12:42;;;;;;;8.65;7.95;;;9.70;99.90;;;;;;5453026;26;20268;-73
2024/04/19 09:15:13;;;;;;;7.15;6.28;;;9.70;99.90;;;;;;5453504;26;20352;-73
2024/04/19 09:17:42;;;;;;;7.40;6.80;;;9.70;99.90;;;;;;5452803;26;20571;-72
2024/04/19 09:20:11;;;;;;;6.25;5.75;;;9.70;99.90;;;;;;5453340;26;20758;-72
2024/04/19 09:22:40;;;;;;;8.98;7.20;;;9.70;99.90;;;;;;5452927;26;20324;-72
2024/04/19 09:25:09;;;;;;;9.32;8.43;;;9.70;99.90;;;;;;5453608;26;20372;-72
2024/04/19 09:27:39;;;;;;;8.50;7.57;;;9.70;99.90;;;;;;5452860;26;20284;-72
2024/04/19 09:30:10;;;;;;;11.02;9.43;;;9.80;99.90;;;;;;5453047;26;20255;-72
2024/04/19 09:32:41;;;;;;;11.60;8.80;;;9.70;99.90;;;;;;5452976;26;20707;-72
2024/04/19 09:35:10;;;;;;;10.27;9.38;;;9.80;99.90;;;;;;5453218;26;20387;-72
2024/04/19 09:37:42;;;;;;;9.75;8.75;;;9.80;99.90;;;;;;5452736;26;20313;-72
2024/04/19 09:40:12;;;;;;;9.00;8.20;;;9.70;99.90;;;;;;5453201;26;20249;-72
2024/04/19 09:42:42;;;;;;;7.35;6.65;;;9.70;99.90;;;;;;5452974;26;20245;-73
2024/04/19 09:45:12;;;;;;;6.25;5.78;;;9.80;99.90;;;;;;5453044;26;20580;-73
2024/04/19 09:47:47;;;;;;;8.05;7.35;;;9.80;99.90;;;;;;5452509;26;20249;-73
2024/04/19 09:50:18;;;;;;;7.88;5.70;;;9.80;99.90;;;;;;5452961;26;20367;-73
2024/04/19 09:52:51;;;;;;;7.07;6.18;;;9.80;99.90;;;;;;5452392;26;20312;-73
2024/04/19 09:55:24;;;;;;;6.10;5.70;;;9.80;99.90;;;;;;5452810;26;20297;-73
2024/04/19 09:57:54;;;;;;;6.55;5.95;;;9.90;99.90;;;;;;5418667;26;20348;-73
2024/04/19 10:00:28;;;;;;;6.75;6.05;;;9.90;99.90;;;;;;5420402;26;20808;-73
2024/04/19 10:03:01;;;;;;;6.68;6.10;;;9.90;99.90;;;;;;5420196;26;20623;-73
2024/04/19 10:05:31;;;;;;;4.93;4.63;;;9.90;99.90;;;;;;5420361;26;20297;-73
2024/04/19 10:08:00;;;;;;;5.57;5.15;;;10.00;99.90;;;;;;5420091;26;20274;-73
2024/04/19 10:10:29;;;;;;;6.75;6.10;;;10.00;99.90;;;;;;5420443;26;20369;-72
2024/04/19 10:12:57;;;;;;;4.93;4.43;;;10.00;99.90;;;;;;5419888;26;20368;-73
2024/04/19 10:15:26;;;;;;;4.85;4.45;;;10.00;99.90;;;;;;5420225;26;20306;-73
2024/04/19 10:17:55;;;;;;;4.40;4.03;;;10.00;99.90;;;;;;5419805;26;20373;-72
2024/04/19 10:20:27;;;;;;;5.75;3.40;;;9.90;99.90;;;;;;5420027;26;20246;-71
2024/04/19 10:22:56;;;;;;;7.30;5.47;;;9.90;99.90;;;;;;5419708;26;20255;-71
2024/04/19 10:25:25;;;;;;;4.90;4.50;;;9.90;99.90;;;;;;5419971;26;20302;-71
2024/04/19 10:27:54;;;;;;;4.43;4.03;;;10.00;99.90;;;;;;5419620;26;20246;-71
2024/04/19 10:30:23;;;;;;;4.45;4.15;;;9.90;99.90;;;;;;5419798;26;20318;-71
2024/04/19 10:32:55;;;;;;;4.38;3.97;;;9.90;99.90;;;;;;5419810;26;20599;-72
2024/04/19 10:35:26;;;;;;;3.72;3.35;;;9.90;99.90;;;;;;5420092;26;20692;-72
2024/04/19 10:37:57;;;;;;;3.00;2.70;;;9.80;99.90;;;;;;5419290;26;20356;-73
2024/04/19 10:40:25;;;;;;;3.55;3.35;;;9.70;99.90;;;;;;5419834;26;20254;-73
2024/04/19 10:43:04;;;;;;;2.95;2.70;;;9.70;99.90;;;;;;5419549;26;20306;-73
2024/04/19 10:45:35;;;;;;;2.85;2.58;;;9.60;99.90;;;;;;5419694;26;20761;-72
2024/04/19 10:48:05;;;;;;;2.42;2.22;;;9.60;99.90;;;;;;5455439;26;20253;-72
2024/04/19 10:50:37;;;;;;;3.28;2.97;;;9.60;99.90;;;;;;5455873;26;20253;-72
2024/04/19 10:53:06;;;;;;;3.83;3.10;;;9.60;99.90;;;;;;5455356;26;20364;-72
2024/04/19 10:55:35;;;;;;;2.88;2.67;;;9.50;99.90;;;;;;5455674;26;20548;-72
2024/04/19 10:58:03;;;;;;;3.70;3.45;;;9.50;99.90;;;;;;5455132;26;20250;-73
2024/04/19 11:00:32;;;;;;;3.00;2.70;;;9.60;99.90;;;;;;5455419;26;20312;-73
2024/04/19 11:03:01;;;;;;;5.70;5.20;;;9.60;99.90;;;;;;5455008;26;20356;-72
2024/04/19 11:05:31;;;;;;;4.38;4.07;;;9.60;99.90;;;;;;5455533;26;20379;-71
2024/04/19 11:08:05;;;;;;;4.32;4.03;;;9.60;99.90;;;;;;5462349;26;20260;-72
2024/04/19 11:10:35;;;;;;;5.07;4.00;;;9.60;99.90;;;;;;5463220;26;20367;-72
2024/04/19 11:13:09;;;;;;;5.10;4.70;;;9.60;99.90;;;;;;5455081;26;20307;-72
2024/04/19 11:15:38;;;;;;;3.25;2.95;;;9.70;99.90;;;;;;5455347;26;20716;-72
2024/04/19 11:18:09;;;;;;;3.30;3.10;;;9.80;99.90;;;;;;5454858;26;20313;-71
2024/04/19 11:20:38;;;;;;;3.17;2.90;;;9.80;99.90;;;;;;5455311;26;20246;-72
2024/04/19 11:23:10;;;;;;;2.85;2.58;;;9.80;99.90;;;;;;5454795;26;20246;-72
2024/04/19 11:25:40;;;;;;;2.05;1.85;;;9.70;99.90;;;;;;5455586;26;20313;-72
2024/04/19 11:28:09;;;;;;;2.45;1.90;;;9.70;99.90;;;;;;5454711;26;20675;-71
2024/04/19 11:30:42;;;;;;;2.35;2.15;;;9.70;99.90;;;;;;5455342;26;20426;-71
2024/04/19 11:33:11;;;;;;;1.85;1.45;;;9.70;99.90;;;;;;5454831;26;20650;-72
2024/04/19 11:35:41;;;;;;;2.10;1.85;;;9.60;99.90;;;;;;5455336;26;20253;-72
2024/04/19 11:38:14;;;;;;;1.67;1.00;;;9.60;99.90;;;;;;5454533;26;20604;-72
2024/04/19 11:40:43;;;;;;;2.67;1.63;;;9.50;99.90;;;;;;5455071;26;20375;-71
2024/04/19 11:43:12;;;;;;;4.07;2.13;;;9.50;99.90;;;;;;5454466;26;20293;-71
2024/04/19 11:45:43;;;;;;;1.50;1.40;;;9.50;99.90;;;;;;5454889;26;20364;-72
2024/04/19 11:48:12;;;;;;;1.40;1.10;;;9.50;99.90;;;;;;5454395;26;20360;-72
2024/04/19 11:50:41;;;;;;;0.80;0.80;;;9.50;99.90;;;;;;5454939;26;20257;-72
2024/04/19 11:53:12;;;;;;;2.55;1.40;;;9.50;99.90;;;;;;5454369;26;20294;-72
2024/04/19 11:55:40;;;;;;;1.48;1.25;;;9.50;99.90;;;;;;5455017;26;20363;-72
2024/04/19 11:58:09;;;;;;;1.17;1.08;;;9.40;99.90;;;;;;5454261;26;20293;-72
2024/04/19 12:00:37;;;;;;;1.05;0.95;;;9.40;99.90;;;;;;5454854;26;20309;-71
2024/04/19 12:03:07;;;;;;;3.00;2.80;;;9.40;99.90;;;;;;5454275;26;20305;-71
2024/04/19 12:05:35;;;;;;;1.38;1.00;;;9.40;99.90;;;;;;5454831;26;20360;-72
2024/04/19 12:08:05;;;;;;;2.00;1.90;;;9.40;99.90;;;;;;5454169;26;20309;-71
2024/04/19 12:10:36;;;;;;;1.70;1.50;;;9.40;99.90;;;;;;5454804;26;20684;-71
2024/04/19 12:13:08;;;;;;;2.13;1.30;;;9.40;99.90;;;;;;5454038;26;20363;-70
2024/04/19 12:15:36;;;;;;;1.42;1.00;;;9.40;99.90;;;;;;5454734;26;20304;-71
2024/04/19 12:18:05;;;;;;;2.55;1.65;;;9.40;99.90;;;;;;5453622;26;20306;-71
2024/04/19 12:20:33;;;;;;;3.80;3.25;;;9.50;99.90;;;;;;5454287;26;20321;-70
2024/04/19 12:23:02;;;;;;;4.32;3.30;;;9.50;99.90;;;;;;5454301;26;20347;-70
2024/04/19 12:25:33;;;;;;;2.50;2.20;;;9.50;99.90;;;;;;5454359;26;20249;-71
2024/04/19 12:28:05;;;;;;;1.83;1.73;;;9.60;99.90;;;;;;5453898;26;20550;-71
2024/04/19 12:30:34;;;;;;;2.42;1.70;;;9.60;99.90;;;;;;5454224;26;20550;-71
2024/04/19 12:33:02;;;;;;;1.55;1.45;;;9.50;99.90;;;;;;5454047;26;20301;-72
2024/04/19 12:35:32;;;;;;;1.77;1.67;;;9.60;99.90;;;;;;5454238;26;20305;-71
2024/04/19 12:38:01;;;;;;;1.70;1.60;;;9.50;99.90;;;;;;5453483;26;20288;-71
2024/04/19 12:40:30;;;;;;;1.80;1.70;;;9.50;99.90;;;;;;5454251;26;20368;-71
2024/04/19 12:43:01;;;;;;;1.75;1.65;;;9.60;99.90;;;;;;5453856;26;20607;-71
2024/04/19 12:45:32;;;;;;;2.13;1.63;;;9.60;99.90;;;;;;5454076;26;20293;-71
2024/04/19 12:48:05;;;;;;;2.10;1.90;;;9.60;99.90;;;;;;5453607;26;20443;-71
2024/04/19 12:50:34;;;;;;;1.40;1.30;;;9.60;99.90;;;;;;5453984;26;20304;-71
2024/04/19 12:53:03;;;;;;;1.70;1.60;;;9.60;99.90;;;;;;5453414;26;20677;-71
2024/04/19 12:55:32;;;;;;;1.88;1.10;;;9.70;99.90;;;;;;5454000;26;20246;-71
2024/04/19 12:58:02;;;;;;;1.60;1.50;;;9.70;99.90;;;;;;5453268;26;20352;-71
2024/04/19 13:00:33;;;;;;;1.60;1.35;;;9.70;99.90;;;;;;5453503;26;20344;-72
2024/04/19 13:03:02;;;;;;;2.08;1.25;;;9.70;99.90;;;;;;5453226;26;20361;-71